Flight Track Log - Related Links

Times and Time Zones

All times are in EDT time to prevent confusion due to time zone crossing. See the EGF4021 flight status page for this flight to view local times or setup timezone preferences in your user account.

Time Position Orientation Groundspeed Altitude Reporting Facility
EDT Latitude Longitude Course Direction KTS MPH feet Rate Location/Type
Thu 03:16:29 PM 41.9833 -87.8667 188° South 167 192 1,800  Level Chicago TRACON
Thu 03:17:29 PM 41.9333 -87.8333 154° Southeast 230 265 3,500 2,000 Climbing Chicago TRACON
Thu 03:17:44 PM 41.9164 -87.8169 144° Southeast 217 250 4,300 2,260 Climbing Chicago Center
Thu 03:18:00 PM 41.7163 -87.9587 180° South  Level Estimated
Thu 03:18:46 PM 41.8414 -87.8256 185° South 274 315 6,400  Level Chicago Center
Thu 03:19:00 PM 41.6279 -87.9759 192° South  Level Estimated
Thu 03:19:48 PM 41.7631 -87.8636 200° South 297 342 8,700  Level Chicago Center
Thu 03:20:00 PM 41.5395 -87.9931 189° South  Level Estimated
Thu 03:20:50 PM 41.6831 -87.9011 199° South 304 350 11,000  Level Chicago Center
Thu 03:21:00 PM 41.4510 -88.0101 188° South  Level FlightAware
Thu 03:21:52 PM 41.6008 -87.9403 200° South 312 359 13,200  Level Chicago Center
Thu 03:22:54 PM 41.5183 -87.9792 199° South 315 362 15,000 1,597 Climbing Chicago Center
Thu 03:23:56 PM 41.4153 -88.0283 200° South 331 381 16,500 968 Climbing Chicago Center
Thu 03:24:58 PM 41.3256 -88.0492 190° South 366 421 17,000 242 Climbing Chicago Center
Thu 03:26:00 PM 41.1933 -88.0731 188° South 395 455 17,000 48 Level Chicago Center
Thu 03:27:02 PM 41.0828 -88.0931 188° South 402 463 17,100 -144 Climbing Chicago Center
Thu 03:28:05 PM 40.9736 -88.1122 188° South 400 460 16,700 -912 Descending Chicago Center
Thu 03:29:07 PM 40.8658 -88.1317 188° South 394 453 15,200 -1,548 Descending Chicago Center
Thu 03:30:09 PM 40.7517 -88.1558 189° South 368 423 13,500 -1,355 Descending Chicago Center
Thu 03:31:11 PM 40.6489 -88.1775 189° South 360 414 12,400 -1,016 Descending Chicago Center
Thu 03:32:13 PM 40.5475 -88.1992 189° South 369 425 11,400 -677 Descending Chicago Center
Thu 03:33:15 PM 40.4469 -88.2217 190° South 368 423 11,000 -677 Descending Chicago Center
Thu 03:34:17 PM 40.3578 -88.2375 188° South 332 382 10,000 -1,248 Descending Chicago Center
Thu 03:35:20 PM 40.2811 -88.1936 156° South 304 350 8,400 -1,776 Descending Chicago Center
Thu 03:36:22 PM 40.1936 -88.1419 156° South 293 337 6,300 -1,790 Descending Chicago Center
Thu 03:37:24 PM 40.1208 -88.1000 156° South 289 333 4,700 -1,113 Descending Chicago Center
Thu 03:38:26 PM 40.0444 -88.0839 171° South 291 335 4,000 -339 Descending Chicago Center
Thu 03:39:28 PM 39.9906 -88.0758 173° South 269 310 4,000  Level Chicago Center

Login

Don't have an account? Register now (free) for customized features, flight alerts, and more!